BTK7065 WIHH-WIBB
Flight info
| Callsign | BTK7065 |
|---|---|
| Flight time | 1h 25m |
| Altitude | 38000 |
| Route | DOLTA A585 JATAM |
| Aircraft | A320/M-SDE3FGHIRWY/LB1 |
Departure
| Time | 2026-04-28 07:26 |
|---|---|
| Airport | Halim Perdanakusuma International Airport (WIHH) |
Arrival
| Time | 2026-04-28 08:52 |
|---|---|
| Airport | Sultan Syarif Kasim II International Airport / Roesmin Nurjadin AFB (WIBB) |
| Time | Latitude | Longitude | Altitude | Speed | Heading |
|---|---|---|---|---|---|
| 2026-04-28 07:10 | -6.26613 | 106.88603 | 94 ft | 0 kts | 338° |
| 2026-04-28 07:16 | -6.26626 | 106.88609 | 95 ft | 3 kts | 329° |
| 2026-04-28 07:16 | -6.26641 | 106.88620 | 94 ft | 3 kts | 306° |
| 2026-04-28 07:16 | -6.26650 | 106.88637 | 94 ft | 3 kts | 278° |
| 2026-04-28 07:16 | -6.26650 | 106.88657 | 94 ft | 3 kts | 251° |
| 2026-04-28 07:17 | -6.26647 | 106.88664 | 94 ft | 0 kts | 245° |
| 2026-04-28 07:20 | -6.26653 | 106.88651 | 94 ft | 6 kts | 245° |
| 2026-04-28 07:20 | -6.26680 | 106.88593 | 96 ft | 9 kts | 245° |
| 2026-04-28 07:20 | -6.26705 | 106.88537 | 95 ft | 8 kts | 246° |
| 2026-04-28 07:21 | -6.26727 | 106.88490 | 94 ft | 7 kts | 238° |
| 2026-04-28 07:21 | -6.26766 | 106.88480 | 96 ft | 5 kts | 171° |
| 2026-04-28 07:21 | -6.26798 | 106.88496 | 96 ft | 5 kts | 154° |
| 2026-04-28 07:22 | -6.26824 | 106.88508 | 94 ft | 0 kts | 155° |
| 2026-04-28 07:22 | -6.26830 | 106.88511 | 94 ft | 6 kts | 157° |
| 2026-04-28 07:22 | -6.26916 | 106.88531 | 95 ft | 15 kts | 200° |
| 2026-04-28 07:22 | -6.26966 | 106.88451 | 91 ft | 13 kts | 244° |
| 2026-04-28 07:23 | -6.27003 | 106.88370 | 92 ft | 12 kts | 246° |
| 2026-04-28 07:23 | -6.27034 | 106.88302 | 93 ft | 10 kts | 245° |
| 2026-04-28 07:23 | -6.27059 | 106.88247 | 95 ft | 8 kts | 246° |
| 2026-04-28 07:23 | -6.27083 | 106.88194 | 94 ft | 13 kts | 245° |
| 2026-04-28 07:24 | -6.27132 | 106.88089 | 94 ft | 17 kts | 244° |
| 2026-04-28 07:24 | -6.27163 | 106.87981 | 95 ft | 15 kts | 257° |
| 2026-04-28 07:24 | -6.27193 | 106.87894 | 97 ft | 11 kts | 222° |
| 2026-04-28 07:24 | -6.27218 | 106.87902 | 95 ft | 2 kts | 87° |
| 2026-04-28 07:25 | -6.27210 | 106.87923 | 95 ft | 5 kts | 65° |
| 2026-04-28 07:25 | -6.27172 | 106.88005 | 94 ft | 35 kts | 65° |
| 2026-04-28 07:25 | -6.26960 | 106.88463 | 92 ft | 105 kts | 65° |
| 2026-04-28 07:25 | -6.26571 | 106.89299 | 98 ft | 157 kts | 64° |
| 2026-04-28 07:26 | -6.26104 | 106.90364 | 583 ft | 167 kts | 65° |
| 2026-04-28 07:26 | -6.25676 | 106.91458 | 1325 ft | 169 kts | 74° |
| 2026-04-28 07:26 | -6.25828 | 106.92637 | 1956 ft | 183 kts | 113° |
| 2026-04-28 07:26 | -6.26511 | 106.93828 | 2183 ft | 209 kts | 119° |
| 2026-04-28 07:27 | -6.27304 | 106.95153 | 2513 ft | 234 kts | 120° |
| 2026-04-28 07:27 | -6.28184 | 106.96624 | 2930 ft | 257 kts | 120° |
| 2026-04-28 07:27 | -6.29135 | 106.98221 | 3660 ft | 267 kts | 120° |
| 2026-04-28 07:27 | -6.30092 | 106.99834 | 4546 ft | 271 kts | 120° |
| 2026-04-28 07:28 | -6.31060 | 107.01468 | 5432 ft | 273 kts | 120° |
| 2026-04-28 07:28 | -6.32035 | 107.03121 | 6314 ft | 276 kts | 120° |
| 2026-04-28 07:28 | -6.33018 | 107.04794 | 7161 ft | 279 kts | 120° |
| 2026-04-28 07:28 | -6.34231 | 107.06327 | 7947 ft | 285 kts | 140° |
| 2026-04-28 07:29 | -6.35943 | 107.07354 | 8728 ft | 289 kts | 152° |
| 2026-04-28 07:29 | -6.37747 | 107.08267 | 9502 ft | 292 kts | 152° |
| 2026-04-28 07:29 | -6.39614 | 107.09095 | 10249 ft | 296 kts | 164° |
| 2026-04-28 07:29 | -6.41678 | 107.09167 | 10968 ft | 303 kts | 191° |
| 2026-04-28 07:30 | -6.43615 | 107.08285 | 11591 ft | 315 kts | 213° |
| 2026-04-28 07:30 | -6.45447 | 107.06928 | 11773 ft | 339 kts | 219° |
| 2026-04-28 07:30 | -6.46995 | 107.05050 | 11978 ft | 361 kts | 241° |
| 2026-04-28 07:30 | -6.47744 | 107.02617 | 12497 ft | 371 kts | 264° |
| 2026-04-28 07:31 | -6.47480 | 107.00027 | 13074 ft | 377 kts | 287° |
| 2026-04-28 07:31 | -6.46586 | 106.97537 | 13712 ft | 380 kts | 291° |
| 2026-04-28 07:31 | -6.45637 | 106.95044 | 14341 ft | 383 kts | 291° |
| 2026-04-28 07:31 | -6.44671 | 106.92536 | 14956 ft | 387 kts | 291° |
| 2026-04-28 07:32 | -6.43707 | 106.90039 | 15552 ft | 390 kts | 291° |
| 2026-04-28 07:32 | -6.42712 | 106.87455 | 16141 ft | 393 kts | 291° |
| 2026-04-28 07:32 | -6.41727 | 106.84884 | 16693 ft | 396 kts | 291° |
| 2026-04-28 07:32 | -6.40739 | 106.82290 | 17234 ft | 399 kts | 290° |
| 2026-04-28 07:33 | -6.39911 | 106.79624 | 17765 ft | 401 kts | 281° |
| 2026-04-28 07:33 | -6.39566 | 106.76833 | 18271 ft | 404 kts | 271° |
| 2026-04-28 07:33 | -6.39524 | 106.74006 | 18762 ft | 407 kts | 270° |
| 2026-04-28 07:33 | -6.39486 | 106.71138 | 19252 ft | 410 kts | 270° |
| 2026-04-28 07:34 | -6.39448 | 106.68272 | 19716 ft | 413 kts | 270° |
| 2026-04-28 07:34 | -6.39410 | 106.65379 | 20165 ft | 415 kts | 270° |
| 2026-04-28 07:34 | -6.39369 | 106.62467 | 20606 ft | 418 kts | 270° |
| 2026-04-28 07:34 | -6.39327 | 106.59534 | 21036 ft | 421 kts | 270° |
| 2026-04-28 07:35 | -6.39282 | 106.56580 | 21458 ft | 423 kts | 270° |
| 2026-04-28 07:35 | -6.39234 | 106.53612 | 21862 ft | 426 kts | 270° |
| 2026-04-28 07:35 | -6.38954 | 106.50636 | 22231 ft | 430 kts | 282° |
| 2026-04-28 07:35 | -6.37947 | 106.47803 | 22599 ft | 434 kts | 297° |
| 2026-04-28 07:36 | -6.36229 | 106.45299 | 22958 ft | 438 kts | 312° |
| 2026-04-28 07:36 | -6.33914 | 106.43312 | 23305 ft | 440 kts | 328° |
| 2026-04-28 07:36 | -6.31148 | 106.41995 | 23647 ft | 442 kts | 343° |
| 2026-04-28 07:36 | -6.28163 | 106.41224 | 23984 ft | 444 kts | 347° |
| 2026-04-28 07:37 | -6.25160 | 106.40480 | 24310 ft | 446 kts | 346° |
| 2026-04-28 07:37 | -6.22141 | 106.39719 | 24667 ft | 448 kts | 346° |
| 2026-04-28 07:37 | -6.19108 | 106.38948 | 25006 ft | 450 kts | 346° |
| 2026-04-28 07:37 | -6.16069 | 106.38175 | 25341 ft | 452 kts | 346° |
| 2026-04-28 07:38 | -6.13010 | 106.37396 | 25678 ft | 453 kts | 346° |
| 2026-04-28 07:38 | -6.09959 | 106.36585 | 25999 ft | 455 kts | 342° |
| 2026-04-28 07:38 | -6.07021 | 106.35393 | 26310 ft | 457 kts | 333° |
| 2026-04-28 07:38 | -6.04188 | 106.33930 | 26615 ft | 459 kts | 333° |
| 2026-04-28 07:39 | -6.01344 | 106.32458 | 26914 ft | 460 kts | 333° |
| 2026-04-28 07:39 | -5.98497 | 106.30985 | 27235 ft | 461 kts | 333° |
| 2026-04-28 07:39 | -5.95636 | 106.29507 | 27531 ft | 463 kts | 333° |
| 2026-04-28 07:39 | -5.92765 | 106.28024 | 27820 ft | 465 kts | 333° |
| 2026-04-28 07:40 | -5.89882 | 106.26537 | 28111 ft | 466 kts | 333° |
| 2026-04-28 07:40 | -5.86997 | 106.25048 | 28390 ft | 467 kts | 333° |
| 2026-04-28 07:40 | -5.84101 | 106.23553 | 28658 ft | 469 kts | 333° |
| 2026-04-28 07:40 | -5.81194 | 106.22055 | 28915 ft | 470 kts | 333° |
| 2026-04-28 07:41 | -5.78279 | 106.20554 | 29172 ft | 472 kts | 333° |
| 2026-04-28 07:41 | -5.75352 | 106.19046 | 29433 ft | 473 kts | 333° |
| 2026-04-28 07:41 | -5.72428 | 106.17537 | 29682 ft | 474 kts | 333° |
| 2026-04-28 07:41 | -5.69486 | 106.16019 | 29923 ft | 476 kts | 333° |
| 2026-04-28 07:42 | -5.66538 | 106.14498 | 30163 ft | 477 kts | 333° |
| 2026-04-28 07:42 | -5.63580 | 106.12971 | 30398 ft | 479 kts | 333° |
| 2026-04-28 07:42 | -5.60625 | 106.11446 | 30714 ft | 477 kts | 333° |
| 2026-04-28 07:42 | -5.57675 | 106.09921 | 31047 ft | 476 kts | 333° |
| 2026-04-28 07:43 | -5.54733 | 106.08397 | 31380 ft | 475 kts | 333° |
| 2026-04-28 07:43 | -5.51794 | 106.06876 | 31712 ft | 474 kts | 334° |
| 2026-04-28 07:43 | -5.48860 | 106.05363 | 32043 ft | 473 kts | 334° |
| 2026-04-28 07:43 | -5.45937 | 106.03859 | 32375 ft | 472 kts | 334° |
| 2026-04-28 07:44 | -5.43000 | 106.02391 | 32694 ft | 470 kts | 338° |
| 2026-04-28 07:44 | -5.39935 | 106.01280 | 33013 ft | 468 kts | 343° |
| 2026-04-28 07:44 | -5.36829 | 106.00289 | 33339 ft | 467 kts | 343° |
| 2026-04-28 07:44 | -5.33741 | 105.99303 | 33653 ft | 466 kts | 343° |
| 2026-04-28 07:45 | -5.30656 | 105.98315 | 33977 ft | 465 kts | 343° |
| 2026-04-28 07:45 | -5.27576 | 105.97323 | 34294 ft | 464 kts | 343° |
| 2026-04-28 07:45 | -5.24501 | 105.96333 | 34603 ft | 464 kts | 343° |
| 2026-04-28 07:45 | -5.21429 | 105.95344 | 34891 ft | 463 kts | 343° |
| 2026-04-28 07:46 | -5.19400 | 105.94690 | 35073 ft | 463 kts | 343° |
| 2026-04-28 07:46 | -5.16337 | 105.93702 | 35328 ft | 462 kts | 343° |
| 2026-04-28 07:46 | -5.13290 | 105.92674 | 35586 ft | 462 kts | 339° |
| 2026-04-28 07:46 | -5.10398 | 105.91261 | 35823 ft | 463 kts | 332° |
| 2026-04-28 07:47 | -5.07604 | 105.89666 | 36056 ft | 463 kts | 332° |
| 2026-04-28 07:47 | -5.04798 | 105.88061 | 36275 ft | 463 kts | 332° |
| 2026-04-28 07:47 | -5.02002 | 105.86460 | 36482 ft | 463 kts | 332° |
| 2026-04-28 07:47 | -4.99210 | 105.84864 | 36696 ft | 463 kts | 332° |
| 2026-04-28 07:48 | -4.96413 | 105.83270 | 36967 ft | 461 kts | 332° |
| 2026-04-28 07:48 | -4.93632 | 105.81687 | 37263 ft | 459 kts | 332° |
| 2026-04-28 07:48 | -4.90862 | 105.80112 | 37543 ft | 457 kts | 332° |
| 2026-04-28 07:48 | -4.88101 | 105.78544 | 37752 ft | 456 kts | 332° |
| 2026-04-28 07:49 | -4.82581 | 105.75403 | 37803 ft | 455 kts | 332° |
| 2026-04-28 07:49 | -4.77077 | 105.72267 | 37804 ft | 455 kts | 332° |
| 2026-04-28 07:50 | -4.71583 | 105.69131 | 37803 ft | 455 kts | 332° |
| 2026-04-28 07:50 | -4.66074 | 105.65990 | 37806 ft | 455 kts | 332° |
| 2026-04-28 07:51 | -4.60572 | 105.62866 | 37803 ft | 455 kts | 332° |
| 2026-04-28 07:51 | -4.55065 | 105.59734 | 37803 ft | 455 kts | 332° |
| 2026-04-28 07:52 | -4.49560 | 105.56605 | 37808 ft | 455 kts | 332° |
| 2026-04-28 07:52 | -4.44089 | 105.53492 | 37810 ft | 455 kts | 332° |
| 2026-04-28 07:53 | -4.38582 | 105.50356 | 37809 ft | 456 kts | 332° |
| 2026-04-28 07:53 | -4.33063 | 105.47214 | 37810 ft | 456 kts | 332° |
| 2026-04-28 07:54 | -4.27542 | 105.44081 | 37814 ft | 456 kts | 332° |
| 2026-04-28 07:54 | -4.22017 | 105.40947 | 37816 ft | 456 kts | 332° |
| 2026-04-28 07:55 | -4.16500 | 105.37812 | 37816 ft | 456 kts | 332° |
| 2026-04-28 07:55 | -4.10979 | 105.34677 | 37815 ft | 456 kts | 332° |
| 2026-04-28 07:56 | -4.05454 | 105.31537 | 37815 ft | 456 kts | 332° |
| 2026-04-28 07:56 | -3.99932 | 105.28399 | 37814 ft | 456 kts | 332° |
| 2026-04-28 07:57 | -3.94415 | 105.25268 | 37807 ft | 456 kts | 332° |
| 2026-04-28 07:57 | -3.88890 | 105.22142 | 37807 ft | 456 kts | 332° |
| 2026-04-28 07:58 | -3.83363 | 105.19027 | 37803 ft | 456 kts | 332° |
| 2026-04-28 07:58 | -3.77834 | 105.15914 | 37803 ft | 456 kts | 332° |
| 2026-04-28 07:59 | -3.72310 | 105.12807 | 37801 ft | 456 kts | 332° |
| 2026-04-28 07:59 | -3.66782 | 105.09696 | 37801 ft | 456 kts | 332° |
| 2026-04-28 08:00 | -3.61253 | 105.06579 | 37797 ft | 456 kts | 332° |
| 2026-04-28 08:00 | -3.55724 | 105.03470 | 37796 ft | 456 kts | 332° |
| 2026-04-28 08:01 | -3.50185 | 105.00359 | 37799 ft | 456 kts | 332° |
| 2026-04-28 08:01 | -3.44687 | 104.97264 | 37798 ft | 457 kts | 332° |
| 2026-04-28 08:02 | -3.39146 | 104.94148 | 37800 ft | 457 kts | 332° |
| 2026-04-28 08:02 | -3.33610 | 104.91036 | 37800 ft | 456 kts | 332° |
| 2026-04-28 08:03 | -3.28076 | 104.87918 | 37801 ft | 456 kts | 332° |
| 2026-04-28 08:03 | -3.22547 | 104.84810 | 37799 ft | 456 kts | 332° |
| 2026-04-28 08:04 | -3.17018 | 104.81702 | 37797 ft | 456 kts | 332° |
| 2026-04-28 08:04 | -3.11484 | 104.78593 | 37796 ft | 455 kts | 332° |
| 2026-04-28 08:05 | -3.05960 | 104.75488 | 37793 ft | 456 kts | 332° |
| 2026-04-28 08:05 | -3.00433 | 104.72383 | 37795 ft | 456 kts | 332° |
| 2026-04-28 08:06 | -2.94897 | 104.69267 | 37796 ft | 456 kts | 332° |
| 2026-04-28 08:06 | -2.89378 | 104.66134 | 37796 ft | 457 kts | 329° |
| 2026-04-28 08:07 | -2.84501 | 104.62063 | 37794 ft | 459 kts | 317° |
| 2026-04-28 08:07 | -2.79932 | 104.57599 | 37792 ft | 459 kts | 317° |
| 2026-04-28 08:08 | -2.75374 | 104.53136 | 37791 ft | 459 kts | 317° |
| 2026-04-28 08:08 | -2.70804 | 104.48674 | 37792 ft | 459 kts | 317° |
| 2026-04-28 08:09 | -2.66223 | 104.44212 | 37794 ft | 460 kts | 317° |
| 2026-04-28 08:09 | -2.61637 | 104.39747 | 37795 ft | 460 kts | 317° |
| 2026-04-28 08:10 | -2.57057 | 104.35284 | 37795 ft | 460 kts | 317° |
| 2026-04-28 08:10 | -2.52467 | 104.30806 | 37797 ft | 461 kts | 317° |
| 2026-04-28 08:11 | -2.47878 | 104.26330 | 37799 ft | 461 kts | 317° |
| 2026-04-28 08:11 | -2.43282 | 104.21860 | 37801 ft | 461 kts | 317° |
| 2026-04-28 08:12 | -2.38688 | 104.17387 | 37801 ft | 460 kts | 317° |
| 2026-04-28 08:12 | -2.34108 | 104.12914 | 37799 ft | 460 kts | 317° |
| 2026-04-28 08:13 | -2.29523 | 104.08445 | 37798 ft | 460 kts | 317° |
| 2026-04-28 08:13 | -2.24930 | 104.03981 | 37796 ft | 461 kts | 317° |
| 2026-04-28 08:14 | -2.20338 | 103.99506 | 37794 ft | 461 kts | 317° |
| 2026-04-28 08:14 | -2.15775 | 103.95062 | 37797 ft | 461 kts | 317° |
| 2026-04-28 08:15 | -2.11178 | 103.90590 | 37802 ft | 461 kts | 317° |
| 2026-04-28 08:15 | -2.06578 | 103.86107 | 37802 ft | 462 kts | 317° |
| 2026-04-28 08:16 | -2.01981 | 103.81625 | 37803 ft | 462 kts | 317° |
| 2026-04-28 08:16 | -1.97343 | 103.77110 | 37802 ft | 462 kts | 317° |
| 2026-04-28 08:17 | -1.92769 | 103.72665 | 37803 ft | 462 kts | 317° |
| 2026-04-28 08:17 | -1.88160 | 103.68183 | 37805 ft | 462 kts | 317° |
| 2026-04-28 08:18 | -1.83561 | 103.63708 | 37802 ft | 462 kts | 317° |
| 2026-04-28 08:18 | -1.78958 | 103.59221 | 37803 ft | 462 kts | 317° |
| 2026-04-28 08:19 | -1.74348 | 103.54731 | 37810 ft | 462 kts | 317° |
| 2026-04-28 08:19 | -1.69739 | 103.50252 | 37818 ft | 462 kts | 317° |
| 2026-04-28 08:20 | -1.65128 | 103.45762 | 37815 ft | 462 kts | 317° |
| 2026-04-28 08:20 | -1.60520 | 103.41272 | 37816 ft | 462 kts | 317° |
| 2026-04-28 08:21 | -1.55913 | 103.36793 | 37816 ft | 462 kts | 317° |
| 2026-04-28 08:21 | -1.51300 | 103.32312 | 37814 ft | 462 kts | 317° |
| 2026-04-28 08:22 | -1.46686 | 103.27829 | 37813 ft | 462 kts | 317° |
| 2026-04-28 08:22 | -1.42078 | 103.23345 | 37812 ft | 462 kts | 317° |
| 2026-04-28 08:23 | -1.37471 | 103.18862 | 37811 ft | 462 kts | 317° |
| 2026-04-28 08:23 | -1.32865 | 103.14377 | 37809 ft | 462 kts | 317° |
| 2026-04-28 08:24 | -1.28247 | 103.09892 | 37804 ft | 462 kts | 317° |
| 2026-04-28 08:24 | -1.23660 | 103.05447 | 37803 ft | 462 kts | 317° |
| 2026-04-28 08:25 | -1.19051 | 103.00964 | 37801 ft | 462 kts | 317° |
| 2026-04-28 08:26 | -1.12141 | 102.94242 | 37801 ft | 463 kts | 317° |
| 2026-04-28 08:26 | -1.07524 | 102.89750 | 37798 ft | 463 kts | 317° |
| 2026-04-28 08:27 | -1.02907 | 102.85263 | 37795 ft | 463 kts | 317° |
| 2026-04-28 08:27 | -0.98287 | 102.80788 | 37791 ft | 463 kts | 317° |
| 2026-04-28 08:28 | -0.93669 | 102.76301 | 37790 ft | 463 kts | 317° |
| 2026-04-28 08:28 | -0.89051 | 102.71818 | 37786 ft | 463 kts | 317° |
| 2026-04-28 08:29 | -0.84419 | 102.67329 | 37474 ft | 463 kts | 317° |
| 2026-04-28 08:29 | -0.82111 | 102.65087 | 37221 ft | 463 kts | 317° |
| 2026-04-28 08:29 | -0.79802 | 102.62839 | 36976 ft | 463 kts | 317° |
| 2026-04-28 08:29 | -0.77494 | 102.60592 | 36723 ft | 463 kts | 317° |
| 2026-04-28 08:30 | -0.75186 | 102.58347 | 36476 ft | 463 kts | 317° |
| 2026-04-28 08:30 | -0.72874 | 102.56106 | 36225 ft | 464 kts | 317° |
| 2026-04-28 08:30 | -0.70553 | 102.53860 | 35979 ft | 466 kts | 317° |
| 2026-04-28 08:30 | -0.68212 | 102.51591 | 35729 ft | 470 kts | 317° |
| 2026-04-28 08:31 | -0.65864 | 102.49312 | 35476 ft | 472 kts | 317° |
| 2026-04-28 08:31 | -0.63501 | 102.47019 | 35228 ft | 474 kts | 317° |
| 2026-04-28 08:31 | -0.61134 | 102.44720 | 34978 ft | 475 kts | 317° |
| 2026-04-28 08:31 | -0.58757 | 102.42412 | 34734 ft | 476 kts | 318° |
| 2026-04-28 08:32 | -0.56381 | 102.40105 | 34479 ft | 477 kts | 318° |
| 2026-04-28 08:32 | -0.54006 | 102.37796 | 34230 ft | 477 kts | 318° |
| 2026-04-28 08:32 | -0.51620 | 102.35481 | 33981 ft | 478 kts | 318° |
| 2026-04-28 08:32 | -0.49228 | 102.33160 | 33731 ft | 479 kts | 318° |
| 2026-04-28 08:33 | -0.47647 | 102.31623 | 33508 ft | 479 kts | 317° |
| 2026-04-28 08:33 | -0.45250 | 102.29293 | 32432 ft | 486 kts | 317° |
| 2026-04-28 08:33 | -0.42813 | 102.26925 | 31344 ft | 491 kts | 317° |
| 2026-04-28 08:33 | -0.40363 | 102.24544 | 30593 ft | 488 kts | 317° |
| 2026-04-28 08:34 | -0.37945 | 102.22194 | 29932 ft | 483 kts | 317° |
| 2026-04-28 08:34 | -0.35544 | 102.19859 | 29232 ft | 479 kts | 317° |
| 2026-04-28 08:34 | -0.33168 | 102.17551 | 28549 ft | 474 kts | 317° |
| 2026-04-28 08:34 | -0.30812 | 102.15270 | 27878 ft | 469 kts | 317° |
| 2026-04-28 08:35 | -0.28476 | 102.13012 | 27211 ft | 465 kts | 317° |
| 2026-04-28 08:35 | -0.26164 | 102.10774 | 26563 ft | 461 kts | 317° |
| 2026-04-28 08:35 | -0.23869 | 102.08554 | 25923 ft | 457 kts | 317° |
| 2026-04-28 08:35 | -0.21591 | 102.06351 | 25270 ft | 453 kts | 317° |
| 2026-04-28 08:36 | -0.19337 | 102.04170 | 24651 ft | 449 kts | 317° |
| 2026-04-28 08:36 | -0.17102 | 102.02006 | 24034 ft | 445 kts | 317° |
| 2026-04-28 08:36 | -0.14894 | 101.99865 | 23450 ft | 440 kts | 317° |
| 2026-04-28 08:36 | -0.12704 | 101.97745 | 22879 ft | 435 kts | 317° |
| 2026-04-28 08:37 | -0.10546 | 101.95660 | 22337 ft | 430 kts | 317° |
| 2026-04-28 08:37 | -0.08404 | 101.93591 | 21814 ft | 425 kts | 317° |
| 2026-04-28 08:37 | -0.06290 | 101.91544 | 21293 ft | 421 kts | 317° |
| 2026-04-28 08:37 | -0.04205 | 101.89523 | 20788 ft | 416 kts | 317° |
| 2026-04-28 08:38 | -0.02143 | 101.87520 | 20293 ft | 411 kts | 317° |
| 2026-04-28 08:38 | -0.00130 | 101.85565 | 19787 ft | 407 kts | 317° |
| 2026-04-28 08:38 | 0.01886 | 101.83609 | 19281 ft | 403 kts | 317° |
| 2026-04-28 08:38 | 0.03884 | 101.81671 | 18761 ft | 399 kts | 317° |
| 2026-04-28 08:39 | 0.05876 | 101.79742 | 18242 ft | 396 kts | 317° |
| 2026-04-28 08:39 | 0.07849 | 101.77834 | 17715 ft | 394 kts | 317° |
| 2026-04-28 08:39 | 0.09951 | 101.76108 | 17192 ft | 389 kts | 327° |
| 2026-04-28 08:39 | 0.12220 | 101.74648 | 16669 ft | 386 kts | 328° |
| 2026-04-28 08:40 | 0.14478 | 101.73206 | 16142 ft | 384 kts | 328° |
| 2026-04-28 08:40 | 0.16723 | 101.71769 | 15624 ft | 382 kts | 328° |
| 2026-04-28 08:40 | 0.18957 | 101.70338 | 15081 ft | 381 kts | 328° |
| 2026-04-28 08:40 | 0.21184 | 101.68913 | 14574 ft | 378 kts | 328° |
| 2026-04-28 08:41 | 0.23393 | 101.67499 | 14053 ft | 376 kts | 328° |
| 2026-04-28 08:41 | 0.25589 | 101.66093 | 13539 ft | 374 kts | 328° |
| 2026-04-28 08:41 | 0.27769 | 101.64696 | 13016 ft | 371 kts | 328° |
| 2026-04-28 08:41 | 0.29936 | 101.63309 | 12494 ft | 368 kts | 328° |
| 2026-04-28 08:42 | 0.32083 | 101.61937 | 12128 ft | 361 kts | 328° |
| 2026-04-28 08:42 | 0.34177 | 101.60601 | 11708 ft | 355 kts | 328° |
| 2026-04-28 08:42 | 0.36256 | 101.59282 | 11187 ft | 353 kts | 329° |
| 2026-04-28 08:42 | 0.38469 | 101.58258 | 10658 ft | 350 kts | 342° |
| 2026-04-28 08:43 | 0.40825 | 101.57775 | 10399 ft | 339 kts | 356° |
| 2026-04-28 08:43 | 0.43134 | 101.57698 | 10273 ft | 326 kts | 360° |
| 2026-04-28 08:43 | 0.45358 | 101.57647 | 10146 ft | 314 kts | 359° |
| 2026-04-28 08:43 | 0.47512 | 101.57594 | 9951 ft | 305 kts | 359° |
| 2026-04-28 08:44 | 0.49618 | 101.57543 | 9746 ft | 302 kts | 359° |
| 2026-04-28 08:44 | 0.51712 | 101.57496 | 9391 ft | 300 kts | 360° |
| 2026-04-28 08:44 | 0.53797 | 101.57451 | 8988 ft | 300 kts | 360° |
| 2026-04-28 08:44 | 0.55878 | 101.57376 | 8584 ft | 299 kts | 355° |
| 2026-04-28 08:45 | 0.57941 | 101.57131 | 8164 ft | 298 kts | 354° |
| 2026-04-28 08:45 | 0.59999 | 101.56890 | 7778 ft | 296 kts | 354° |
| 2026-04-28 08:45 | 0.62035 | 101.56657 | 7361 ft | 295 kts | 354° |
| 2026-04-28 08:45 | 0.64063 | 101.56412 | 6926 ft | 294 kts | 350° |
| 2026-04-28 08:46 | 0.65934 | 101.55643 | 6508 ft | 292 kts | 323° |
| 2026-04-28 08:46 | 0.67221 | 101.54109 | 6078 ft | 290 kts | 295° |
| 2026-04-28 08:46 | 0.67700 | 101.52169 | 5650 ft | 289 kts | 277° |
| 2026-04-28 08:46 | 0.67938 | 101.50183 | 5222 ft | 287 kts | 276° |
| 2026-04-28 08:47 | 0.68162 | 101.48204 | 4795 ft | 286 kts | 274° |
| 2026-04-28 08:47 | 0.67857 | 101.46301 | 4375 ft | 273 kts | 242° |
| 2026-04-28 08:47 | 0.66609 | 101.44983 | 3978 ft | 257 kts | 205° |
| 2026-04-28 08:47 | 0.64950 | 101.44526 | 3655 ft | 242 kts | 184° |
| 2026-04-28 08:48 | 0.63305 | 101.44458 | 3319 ft | 231 kts | 178° |
| 2026-04-28 08:48 | 0.61724 | 101.44483 | 3010 ft | 224 kts | 176° |
| 2026-04-28 08:48 | 0.60194 | 101.44552 | 2713 ft | 217 kts | 176° |
| 2026-04-28 08:48 | 0.58711 | 101.44609 | 2425 ft | 210 kts | 177° |
| 2026-04-28 08:49 | 0.57267 | 101.44640 | 2163 ft | 203 kts | 178° |
| 2026-04-28 08:49 | 0.55917 | 101.44648 | 1901 ft | 185 kts | 178° |
| 2026-04-28 08:49 | 0.54703 | 101.44638 | 1677 ft | 165 kts | 179° |
| 2026-04-28 08:49 | 0.53608 | 101.44622 | 1439 ft | 151 kts | 179° |
| 2026-04-28 08:50 | 0.52658 | 101.44606 | 1261 ft | 146 kts | 179° |
| 2026-04-28 08:50 | 0.51674 | 101.44586 | 1065 ft | 143 kts | 179° |
| 2026-04-28 08:50 | 0.50686 | 101.44562 | 879 ft | 141 kts | 180° |
| 2026-04-28 08:50 | 0.49691 | 101.44531 | 697 ft | 141 kts | 180° |
| 2026-04-28 08:51 | 0.48724 | 101.44512 | 487 ft | 141 kts | 180° |
| 2026-04-28 08:51 | 0.47750 | 101.44489 | 303 ft | 140 kts | 180° |
| 2026-04-28 08:51 | 0.46776 | 101.44470 | 143 ft | 137 kts | 181° |
| 2026-04-28 08:51 | 0.45938 | 101.44449 | 126 ft | 98 kts | 182° |
| 2026-04-28 08:52 | 0.45425 | 101.44433 | 127 ft | 46 kts | 182° |
| 2026-04-28 08:52 | 0.45219 | 101.44444 | 126 ft | 22 kts | 160° |
| 2026-04-28 08:52 | 0.45176 | 101.44429 | 128 ft | 3 kts | 290° |
| 2026-04-28 08:52 | 0.45189 | 101.44421 | 125 ft | 2 kts | 339° |
| 2026-04-28 08:53 | 0.45213 | 101.44423 | 128 ft | 5 kts | 7° |
| 2026-04-28 08:53 | 0.45254 | 101.44427 | 126 ft | 9 kts | 4° |
| 2026-04-28 08:53 | 0.45336 | 101.44429 | 124 ft | 12 kts | 1° |
| 2026-04-28 08:53 | 0.45419 | 101.44431 | 133 ft | 11 kts | 2° |
| 2026-04-28 08:54 | 0.45495 | 101.44435 | 125 ft | 10 kts | 3° |
| 2026-04-28 08:54 | 0.45564 | 101.44437 | 123 ft | 10 kts | 1° |
| 2026-04-28 08:54 | 0.45627 | 101.44438 | 131 ft | 9 kts | 1° |
| 2026-04-28 08:54 | 0.45683 | 101.44439 | 126 ft | 8 kts | 1° |
| 2026-04-28 08:55 | 0.45733 | 101.44440 | 125 ft | 7 kts | 1° |
| 2026-04-28 08:55 | 0.45775 | 101.44440 | 121 ft | 6 kts | 1° |
| 2026-04-28 08:55 | 0.45815 | 101.44442 | 124 ft | 8 kts | 4° |
| 2026-04-28 08:55 | 0.45898 | 101.44447 | 124 ft | 12 kts | 2° |
| 2026-04-28 08:56 | 0.45979 | 101.44449 | 126 ft | 11 kts | 1° |
| 2026-04-28 08:56 | 0.46051 | 101.44451 | 122 ft | 10 kts | 2° |
| 2026-04-28 08:56 | 0.46147 | 101.44455 | 125 ft | 17 kts | 2° |
| 2026-04-28 08:56 | 0.46264 | 101.44458 | 123 ft | 17 kts | 1° |
| 2026-04-28 08:57 | 0.46368 | 101.44473 | 125 ft | 13 kts | 41° |
| 2026-04-28 08:57 | 0.46380 | 101.44565 | 123 ft | 15 kts | 91° |
| 2026-04-28 08:57 | 0.46430 | 101.44590 | 125 ft | 7 kts | 2° |
| 2026-04-28 08:57 | 0.46475 | 101.44593 | 126 ft | 6 kts | 3° |
| 2026-04-28 08:58 | 0.46515 | 101.44596 | 126 ft | 4 kts | 21° |
| 2026-04-28 08:58 | 0.46521 | 101.44620 | 128 ft | 3 kts | 97° |
| 2026-04-28 08:58 | 0.46519 | 101.44651 | 128 ft | 6 kts | 91° |
| 2026-04-28 08:58 | 0.46518 | 101.44678 | 128 ft | 1 kts | 91° |
| 2026-04-28 08:59 | 0.46518 | 101.44682 | 128 ft | 0 kts | 91° |